Seiryu — JL6546 — position and weather

sailwx.info

Track history (hours):
 
Tides and Currents Weather Stations Pressure Air Temp Water Temp Dewpoint Dewpoint Depression Visibility Wind Speed Wind Dir Waves Ship Positions

Seiryu

Last reported at 2018-Jan-06 11:25 UTC. Time now 2018-Jan-20 18:25 UTC.
Position N 35°02' E 140°13'.
Warning: this ship's position is 14 days out of date.

Length 64 m; draft 5.4 m.

Type: Ship (hazmat cat C). MMSI: 431500624.

Date/timePositionNaut miles runAvg speedWind from/ knotsBaromVisibWave heightAir tempDewpointWater temp
2018-Jan-06 11:25N 35°02' E 140°13'5 9.9
2018-Jan-06 10:54N 34°59' E 140°08'410.6
2018-Jan-06 10:29N 34°57' E 140°04'610.9
2018-Jan-06 09:58N 34°53' E 139°58'511.1
2018-Jan-06 09:29N 34°53' E 139°51'510.5
2018-Jan-06 08:59N 34°55' E 139°46'5 9.6
2018-Jan-06 08:30N 34°59' E 139°43'5 9.6
2018-Jan-06 08:00N 35°04' E 139°44'510.7
2018-Jan-06 07:30N 35°09' E 139°45'510.3
2018-Jan-06 07:00N 35°14' E 139°46'510.0
2018-Jan-06 06:30N 35°19' E 139°44'5 9.8
2018-Jan-06 06:00N 35°23' E 139°43'4 8.5
2018-Jan-06 05:30N 35°25' E 139°48'4 7.7
2018-Jan-06 05:00N 35°22' E 139°51'0 0.2
2018-Jan-06 04:31N 35°22' E 139°51'0 0.0
2018-Jan-06 04:00N 35°22' E 139°51'0 0.0
2018-Jan-06 03:30N 35°22' E 139°51'0 0.0
2018-Jan-06 03:00N 35°22' E 139°51'0 0.0
2018-Jan-06 02:30N 35°22' E 139°51'0 0.0
2018-Jan-06 02:00N 35°22' E 139°51'0 0.0
2018-Jan-06 01:30N 35°22' E 139°51'0 0.0
2018-Jan-06 01:00N 35°22' E 139°51'0 0.5
2018-Jan-06 00:30N 35°22' E 139°50'1 1.5
2018-Jan-06 00:01N 35°22' E 139°49'0 0.0
2018-Jan-05 23:31N 35°22' E 139°49'0 0.0
2018-Jan-05 23:00N 35°22' E 139°49'0 0.0
2018-Jan-05 22:30N 35°22' E 139°49'0 0.0
2018-Jan-05 22:01N 35°22' E 139°49'0 0.0
2018-Jan-05 21:30N 35°22' E 139°49'2 3.7
2018-Jan-05 21:00N 35°22' E 139°47'5 9.4
2018-Jan-05 20:31N 35°18' E 139°44'611.5
2018-Jan-05 20:01N 35°13' E 139°47'510.9
2018-Jan-05 19:30N 35°08' E 139°45'510.4
2018-Jan-05 19:00N 35°03' E 139°42'510.8
2018-Jan-05 18:30N 35°00' E 139°36'510.6
2018-Jan-05 18:00N 34°57' E 139°31'510.5
2018-Jan-05 17:30N 34°53' E 139°26'611.5
2018-Jan-05 17:00N 34°50' E 139°21'612.1
2018-Jan-05 16:30N 34°46' E 139°15'611.4
2018-Jan-05 15:59N 34°43' E 139°09'511.4
2018-Jan-05 15:31N 34°40' E 139°04'611.6
2018-Jan-05 15:00N 34°36' E 138°58'611.3
2018-Jan-05 14:26N 34°35' E 138°51'410.3
2018-Jan-05 14:01N 34°35' E 138°45'610.8
2018-Jan-05 13:29N 34°34' E 138°38'510.9
2018-Jan-05 13:01N 34°34' E 138°32'510.7
2018-Jan-05 12:30N 34°33' E 138°26'510.8
2018-Jan-05 12:00N 34°33' E 138°19'610.6
2018-Jan-05 11:27N 34°32' E 138°12'610.6
2018-Jan-05 10:51N 34°31' E 138°04'410.2
2018-Jan-05 10:26N 34°31' E 137°59'510.7
2018-Jan-05 09:58N 34°30' E 137°53'510.7
2018-Jan-05 09:29N 34°30' E 137°47'2511.2
2018-Jan-05 07:18N 34°29' E 137°17'310.9
2018-Jan-05 06:59N 34°29' E 137°13'1710.5
2018-Jan-05 05:21N 34°29' E 136°52'1 3.1
2018-Jan-05 04:59N 34°30' E 136°51'1 2.2
2018-Jan-05 04:30N 34°28' E 136°51'0 0.0
2018-Jan-05 04:01N 34°28' E 136°51'0 0.0
2018-Jan-05 03:30N 34°28' E 136°51'0 0.0
2018-Jan-05 03:00N 34°28' E 136°51'0 0.0
2018-Jan-05 01:27N 34°28' E 136°51'0 0.0
2018-Jan-05 00:53N 34°28' E 136°51'0 0.0
2018-Jan-05 00:31N 34°28' E 136°51'0 0.0
2018-Jan-04 23:55N 34°28' E 136°51'0 0.0
2018-Jan-04 23:30N 34°28' E 136°51'0 0.0
2018-Jan-04 23:00N 34°28' E 136°51'0 0.0
2018-Jan-04 22:26N 34°28' E 136°51'0 0.0
2018-Jan-04 21:56N 34°28' E 136°51'0 0.0
2018-Jan-04 21:29N 34°28' E 136°51'0 0.0
2018-Jan-04 20:55N 34°28' E 136°51'0 0.0
2018-Jan-04 20:30N 34°28' E 136°51'0 0.0
2018-Jan-04 20:01N 34°28' E 136°51'0 0.0
2018-Jan-04 19:30N 34°28' E 136°51'0 0.0
2018-Jan-04 18:54N 34°28' E 136°51'0 0.0
2018-Jan-04 18:16N 34°28' E 136°51'0 0.0
2018-Jan-04 18:00N 34°28' E 136°51'0 0.0
2018-Jan-04 17:30N 34°28' E 136°51'0 0.0
2018-Jan-04 16:59N 34°28' E 136°51'0 0.0
2018-Jan-04 16:30N 34°28' E 136°51'0 0.0
2018-Jan-04 16:00N 34°28' E 136°51'0 0.0
2018-Jan-04 15:30N 34°28' E 136°51'0 0.0
2018-Jan-04 15:00N 34°28' E 136°51'0 0.0
2018-Jan-04 14:31N 34°28' E 136°51'0 0.0
2018-Jan-04 13:59N 34°28' E 136°51'0 0.0
2018-Jan-04 13:29N 34°28' E 136°51'0 0.0
2018-Jan-04 12:58N 34°28' E 136°51'0 0.0
2018-Jan-04 12:30N 34°28' E 136°51'0 0.0
2018-Jan-04 12:00N 34°28' E 136°51'0 0.0
2018-Jan-04 11:30N 34°28' E 136°51'0 0.0
2018-Jan-04 10:59N 34°28' E 136°51'0 0.0
2018-Jan-04 10:29N 34°28' E 136°51'0 0.0
2018-Jan-04 09:57N 34°28' E 136°51'0 0.0
2018-Jan-04 09:28N 34°28' E 136°51'0 0.0
2018-Jan-04 09:00N 34°28' E 136°51'0 0.0
2018-Jan-04 08:30N 34°28' E 136°51'0 0.0
2018-Jan-04 07:58N 34°28' E 136°51'0 0.0
2018-Jan-04 07:29N 34°28' E 136°51'0 0.0
2018-Jan-04 06:57N 34°28' E 136°51'0 0.0
2018-Jan-04 06:27N 34°28' E 136°51'0 0.0
2018-Jan-04 06:01N 34°28' E 136°51'0 0.0
2018-Jan-04 05:30N 34°28' E 136°51'0 0.0
2018-Jan-04 04:56N 34°28' E 136°51'0 0.0
2018-Jan-04 04:31N 34°28' E 136°51'0 0.0
2018-Jan-04 03:58N 34°28' E 136°51'0 0.0
2018-Jan-04 03:29N 34°28' E 136°51'0 0.0
2018-Jan-04 03:00N 34°28' E 136°51'0 0.0
2018-Jan-04 02:23N 34°28' E 136°51'0 0.0
2018-Jan-04 02:00N 34°28' E 136°51'0 0.0
2018-Jan-04 01:26N 34°28' E 136°51'0 0.0
2018-Jan-04 00:58N 34°28' E 136°51'0 0.0
2018-Jan-04 00:30N 34°28' E 136°51'0 0.0
2018-Jan-03 23:16N 34°28' E 136°51'0 0.0
2018-Jan-03 22:56N 34°28' E 136°51'0 0.0
2018-Jan-01 21:07N 34°28' E 136°51'0 0.0
2018-Jan-01 20:58N 34°28' E 136°51'  
2017-Dec-30 01:11N 34°28' E 136°51'0 0.0
2017-Dec-30 01:00N 34°28' E 136°51'0 0.0
2017-Dec-30 00:29N 34°28' E 136°51'0 0.0
2017-Dec-29 23:59N 34°28' E 136°51'0 0.0
2017-Dec-29 23:30N 34°28' E 136°51'0 0.0
2017-Dec-29 23:01N 34°28' E 136°51'0 0.0
2017-Dec-29 22:30N 34°28' E 136°51'0 0.0
2017-Dec-29 22:00N 34°28' E 136°51'0 0.0
2017-Dec-29 21:28N 34°28' E 136°51'0 0.0
2017-Dec-29 20:58N 34°28' E 136°51'0 0.0
2017-Dec-29 20:30N 34°28' E 136°51'0 0.0
2017-Dec-29 20:00N 34°28' E 136°51'0 0.0
2017-Dec-29 19:30N 34°28' E 136°51'0 0.0
2017-Dec-29 18:57N 34°28' E 136°51'0 0.0
2017-Dec-29 18:30N 34°28' E 136°51'0 0.0
2017-Dec-29 17:57N 34°28' E 136°51'0 0.0
2017-Dec-29 17:31N 34°28' E 136°51'0 0.0
2017-Dec-29 16:59N 34°28' E 136°51'0 0.0
2017-Dec-29 16:29N 34°28' E 136°51'0 0.0
2017-Dec-29 16:00N 34°28' E 136°51'0 0.0
2017-Dec-29 15:31N 34°28' E 136°51'0 0.0
2017-Dec-29 15:00N 34°28' E 136°51'0 0.0
2017-Dec-29 14:30N 34°28' E 136°51'0 0.0
2017-Dec-29 14:00N 34°28' E 136°51'0 0.0
2017-Dec-29 13:30N 34°28' E 136°51'0 0.0
2017-Dec-29 13:01N 34°28' E 136°51'0 0.0
2017-Dec-29 12:29N 34°28' E 136°51'0 0.0
2017-Dec-29 12:00N 34°28' E 136°51'0 0.0
2017-Dec-29 11:31N 34°28' E 136°51'0 0.0
2017-Dec-29 11:00N 34°28' E 136°51'0 0.0
2017-Dec-29 10:30N 34°28' E 136°51'0 0.0
2017-Dec-29 09:58N 34°28' E 136°51'0 0.0
2017-Dec-29 09:29N 34°28' E 136°51'0 0.0
2017-Dec-29 09:00N 34°28' E 136°51'0 0.0
2017-Dec-29 07:49N 34°28' E 136°51'0 0.0
2017-Dec-29 07:20N 34°28' E 136°51'0 0.0
2017-Dec-29 06:59N 34°28' E 136°51'0 0.0
2017-Dec-29 06:28N 34°28' E 136°51'0 0.0
2017-Dec-29 05:56N 34°28' E 136°51'0 0.0
2017-Dec-29 05:30N 34°28' E 136°51'0 0.0
2017-Dec-29 04:34N 34°28' E 136°51'0 0.0
2017-Dec-29 04:30N 34°28' E 136°51'0 0.0
2017-Dec-29 01:49N 34°28' E 136°51'1 2.0
2017-Dec-29 01:29N 34°29' E 136°51'1 1.1
2017-Dec-29 01:01N 34°30' E 136°51'0 0.0
2017-Dec-29 00:27N 34°30' E 136°51'0 0.0
2017-Dec-28 23:59N 34°30' E 136°51'0 0.0
2017-Dec-28 23:30N 34°30' E 136°51'0 0.0
2017-Dec-28 23:01N 34°30' E 136°51'0 0.0
2017-Dec-28 22:23N 34°30' E 136°51'1 2.5
2017-Dec-28 22:00N 34°29' E 136°51'0 0.1
2017-Dec-28 20:04N 34°28' E 136°51'0 0.0
2017-Dec-28 17:19N 34°28' E 136°51'0 0.0
2017-Dec-28 16:55N 34°28' E 136°51'0 0.0
2017-Dec-28 16:28N 34°28' E 136°51'0 0.0
2017-Dec-28 15:15N 34°28' E 136°51'0 0.0
2017-Dec-28 14:37N 34°28' E 136°51'0 0.0
2017-Dec-28 14:24N 34°28' E 136°51'0 0.0
2017-Dec-28 13:50N 34°28' E 136°51'0 0.0
2017-Dec-28 13:30N 34°28' E 136°51'0 0.0
2017-Dec-28 12:58N 34°28' E 136°51'0 0.0
2017-Dec-28 12:28N 34°28' E 136°51'0 0.0
2017-Dec-28 11:56N 34°28' E 136°51'0 0.0
2017-Dec-28 11:28N 34°28' E 136°51'0 0.0
2017-Dec-28 11:00N 34°28' E 136°51'0 0.0
2017-Dec-28 10:22N 34°28' E 136°51'0 0.0
2017-Dec-28 10:00N 34°28' E 136°51'0 0.0
2017-Dec-28 09:29N 34°28' E 136°51'0 0.0
2017-Dec-28 09:00N 34°28' E 136°51'0 0.0
2017-Dec-28 08:29N 34°28' E 136°51'0 0.0
2017-Dec-28 07:14N 34°28' E 136°51'0 0.0
2017-Dec-28 06:51N 34°28' E 136°51'0 0.0
2017-Dec-28 06:22N 34°28' E 136°51'0 0.1
2017-Dec-28 05:53N 34°29' E 136°51'8 8.6
2017-Dec-28 04:59N 34°29' E 137°00'9 9.6
2017-Dec-28 04:03N 34°31' E 137°11'110.1
2017-Dec-28 04:00N 34°31' E 137°12'510.2
2017-Dec-28 03:30N 34°31' E 137°18'26 8.8
2017-Dec-28 00:36N 34°34' E 137°49'4 8.4
2017-Dec-28 00:08N 34°34' E 137°54'2 8.8
2017-Dec-27 23:53N 34°34' E 137°56'11 8.6
2017-Dec-27 22:39N 34°34' E 138°09'2 8.1
2017-Dec-27 22:27N 34°34' E 138°11'4 8.7
2017-Dec-27 21:59N 34°34' E 138°16'5 9.6
2017-Dec-27 21:30N 34°37' E 138°21'5 9.1
2017-Dec-27 20:57N 34°39' E 138°26'4 8.6
2017-Dec-27 20:29N 34°41' E 138°30'4 8.4
2017-Dec-27 20:00N 34°40' E 138°35'4 7.4
2017-Dec-27 19:27N 34°38' E 138°39'3 6.6
2017-Dec-27 18:59N 34°37' E 138°43'3 6.3
2017-Dec-27 18:30N 34°36' E 138°46'3 5.8
2017-Dec-27 18:01N 34°35' E 138°50'3 5.2
2017-Dec-27 17:30N 34°35' E 138°53'3 5.9
2017-Dec-27 17:00N 34°36' E 138°56'6 8.9
2017-Dec-27 16:23N 34°40' E 139°01'410.1
2017-Dec-27 16:01N 34°43' E 139°04'510.1
2017-Dec-27 15:31N 34°47' E 139°08'5 9.8
2017-Dec-27 15:00N 34°50' E 139°13'5 9.5
2017-Dec-27 14:31N 34°51' E 139°18'5 9.2
2017-Dec-27 14:00N 34°53' E 139°24'5 9.3
2017-Dec-27 13:30N 34°53' E 139°29'510.2
2017-Dec-27 13:00N 34°53' E 139°36'710.6
2017-Dec-27 12:17N 34°53' E 139°45'310.4
2017-Dec-27 11:59N 34°53' E 139°49'  
Track history (hours):
 
Tides and Currents Weather Stations Pressure Air Temp Water Temp Dewpoint Dewpoint Depression Visibility Wind Speed Wind Dir Waves Ship Positions

Seiryu

Last reported at 2018-Jan-06 11:25 UTC. Time now 2018-Jan-20 18:25 UTC.
Position N 35°02' E 140°13'.
Warning: this ship's position is 14 days out of date.

Length 64 m; draft 5.4 m.

Type: Ship (hazmat cat C). MMSI: 431500624.

Date/timePositionNaut miles runAvg speedWind from/ knotsBaromVisibWave heightAir tempDewpointWater temp
2018-Jan-06 11:25N 35°02' E 140°13'5 9.9
2018-Jan-06 10:54N 34°59' E 140°08'410.6
2018-Jan-06 10:29N 34°57' E 140°04'610.9
2018-Jan-06 09:58N 34°53' E 139°58'511.1
2018-Jan-06 09:29N 34°53' E 139°51'510.5
2018-Jan-06 08:59N 34°55' E 139°46'5 9.6
2018-Jan-06 08:30N 34°59' E 139°43'5 9.6
2018-Jan-06 08:00N 35°04' E 139°44'510.7
2018-Jan-06 07:30N 35°09' E 139°45'510.3
2018-Jan-06 07:00N 35°14' E 139°46'510.0
2018-Jan-06 06:30N 35°19' E 139°44'5 9.8
2018-Jan-06 06:00N 35°23' E 139°43'4 8.5
2018-Jan-06 05:30N 35°25' E 139°48'4 7.7
2018-Jan-06 05:00N 35°22' E 139°51'0 0.2
2018-Jan-06 04:31N 35°22' E 139°51'0 0.0
2018-Jan-06 04:00N 35°22' E 139°51'0 0.0
2018-Jan-06 03:30N 35°22' E 139°51'0 0.0
2018-Jan-06 03:00N 35°22' E 139°51'0 0.0
2018-Jan-06 02:30N 35°22' E 139°51'0 0.0
2018-Jan-06 02:00N 35°22' E 139°51'0 0.0
2018-Jan-06 01:30N 35°22' E 139°51'0 0.0
2018-Jan-06 01:00N 35°22' E 139°51'0 0.5
2018-Jan-06 00:30N 35°22' E 139°50'1 1.5
2018-Jan-06 00:01N 35°22' E 139°49'0 0.0
2018-Jan-05 23:31N 35°22' E 139°49'0 0.0
2018-Jan-05 23:00N 35°22' E 139°49'0 0.0
2018-Jan-05 22:30N 35°22' E 139°49'0 0.0
2018-Jan-05 22:01N 35°22' E 139°49'0 0.0
2018-Jan-05 21:30N 35°22' E 139°49'2 3.7
2018-Jan-05 21:00N 35°22' E 139°47'5 9.4
2018-Jan-05 20:31N 35°18' E 139°44'611.5
2018-Jan-05 20:01N 35°13' E 139°47'510.9
2018-Jan-05 19:30N 35°08' E 139°45'510.4
2018-Jan-05 19:00N 35°03' E 139°42'510.8
2018-Jan-05 18:30N 35°00' E 139°36'510.6
2018-Jan-05 18:00N 34°57' E 139°31'510.5
2018-Jan-05 17:30N 34°53' E 139°26'611.5
2018-Jan-05 17:00N 34°50' E 139°21'612.1
2018-Jan-05 16:30N 34°46' E 139°15'611.4
2018-Jan-05 15:59N 34°43' E 139°09'511.4
2018-Jan-05 15:31N 34°40' E 139°04'611.6
2018-Jan-05 15:00N 34°36' E 138°58'611.3
2018-Jan-05 14:26N 34°35' E 138°51'410.3
2018-Jan-05 14:01N 34°35' E 138°45'610.8
2018-Jan-05 13:29N 34°34' E 138°38'510.9
2018-Jan-05 13:01N 34°34' E 138°32'510.7
2018-Jan-05 12:30N 34°33' E 138°26'510.8
2018-Jan-05 12:00N 34°33' E 138°19'610.6
2018-Jan-05 11:27N 34°32' E 138°12'610.6
2018-Jan-05 10:51N 34°31' E 138°04'410.2
2018-Jan-05 10:26N 34°31' E 137°59'510.7
2018-Jan-05 09:58N 34°30' E 137°53'510.7
2018-Jan-05 09:29N 34°30' E 137°47'2511.2
2018-Jan-05 07:18N 34°29' E 137°17'310.9
2018-Jan-05 06:59N 34°29' E 137°13'1710.5
2018-Jan-05 05:21N 34°29' E 136°52'1 3.1
2018-Jan-05 04:59N 34°30' E 136°51'1 2.2
2018-Jan-05 04:30N 34°28' E 136°51'0 0.0
2018-Jan-05 04:01N 34°28' E 136°51'0 0.0
2018-Jan-05 03:30N 34°28' E 136°51'0 0.0
2018-Jan-05 03:00N 34°28' E 136°51'0 0.0
2018-Jan-05 01:27N 34°28' E 136°51'0 0.0
2018-Jan-05 00:53N 34°28' E 136°51'0 0.0
2018-Jan-05 00:31N 34°28' E 136°51'0 0.0
2018-Jan-04 23:55N 34°28' E 136°51'0 0.0
2018-Jan-04 23:30N 34°28' E 136°51'0 0.0
2018-Jan-04 23:00N 34°28' E 136°51'0 0.0
2018-Jan-04 22:26N 34°28' E 136°51'0 0.0
2018-Jan-04 21:56N 34°28' E 136°51'0 0.0
2018-Jan-04 21:29N 34°28' E 136°51'0 0.0
2018-Jan-04 20:55N 34°28' E 136°51'0 0.0
2018-Jan-04 20:30N 34°28' E 136°51'0 0.0
2018-Jan-04 20:01N 34°28' E 136°51'0 0.0
2018-Jan-04 19:30N 34°28' E 136°51'0 0.0
2018-Jan-04 18:54N 34°28' E 136°51'0 0.0
2018-Jan-04 18:16N 34°28' E 136°51'0 0.0
2018-Jan-04 18:00N 34°28' E 136°51'0 0.0
2018-Jan-04 17:30N 34°28' E 136°51'0 0.0
2018-Jan-04 16:59N 34°28' E 136°51'0 0.0
2018-Jan-04 16:30N 34°28' E 136°51'0 0.0
2018-Jan-04 16:00N 34°28' E 136°51'0 0.0
2018-Jan-04 15:30N 34°28' E 136°51'0 0.0
2018-Jan-04 15:00N 34°28' E 136°51'0 0.0
2018-Jan-04 14:31N 34°28' E 136°51'0 0.0
2018-Jan-04 13:59N 34°28' E 136°51'0 0.0
2018-Jan-04 13:29N 34°28' E 136°51'0 0.0
2018-Jan-04 12:58N 34°28' E 136°51'0 0.0
2018-Jan-04 12:30N 34°28' E 136°51'0 0.0
2018-Jan-04 12:00N 34°28' E 136°51'0 0.0
2018-Jan-04 11:30N 34°28' E 136°51'0 0.0
2018-Jan-04 10:59N 34°28' E 136°51'0 0.0
2018-Jan-04 10:29N 34°28' E 136°51'0 0.0
2018-Jan-04 09:57N 34°28' E 136°51'0 0.0
2018-Jan-04 09:28N 34°28' E 136°51'0 0.0
2018-Jan-04 09:00N 34°28' E 136°51'0 0.0
2018-Jan-04 08:30N 34°28' E 136°51'0 0.0
2018-Jan-04 07:58N 34°28' E 136°51'0 0.0
2018-Jan-04 07:29N 34°28' E 136°51'0 0.0
2018-Jan-04 06:57N 34°28' E 136°51'0 0.0
2018-Jan-04 06:27N 34°28' E 136°51'0 0.0
2018-Jan-04 06:01N 34°28' E 136°51'0 0.0
2018-Jan-04 05:30N 34°28' E 136°51'0 0.0
2018-Jan-04 04:56N 34°28' E 136°51'0 0.0
2018-Jan-04 04:31N 34°28' E 136°51'0 0.0
2018-Jan-04 03:58N 34°28' E 136°51'0 0.0
2018-Jan-04 03:29N 34°28' E 136°51'0 0.0
2018-Jan-04 03:00N 34°28' E 136°51'0 0.0
2018-Jan-04 02:23N 34°28' E 136°51'0 0.0
2018-Jan-04 02:00N 34°28' E 136°51'0 0.0
2018-Jan-04 01:26N 34°28' E 136°51'0 0.0
2018-Jan-04 00:58N 34°28' E 136°51'0 0.0
2018-Jan-04 00:30N 34°28' E 136°51'0 0.0
2018-Jan-03 23:16N 34°28' E 136°51'0 0.0
2018-Jan-03 22:56N 34°28' E 136°51'0 0.0
2018-Jan-01 21:07N 34°28' E 136°51'0 0.0
2018-Jan-01 20:58N 34°28' E 136°51'  
2017-Dec-30 01:11N 34°28' E 136°51'0 0.0
2017-Dec-30 01:00N 34°28' E 136°51'0 0.0
2017-Dec-30 00:29N 34°28' E 136°51'0 0.0
2017-Dec-29 23:59N 34°28' E 136°51'0 0.0
2017-Dec-29 23:30N 34°28' E 136°51'0 0.0
2017-Dec-29 23:01N 34°28' E 136°51'0 0.0
2017-Dec-29 22:30N 34°28' E 136°51'0 0.0
2017-Dec-29 22:00N 34°28' E 136°51'0 0.0
2017-Dec-29 21:28N 34°28' E 136°51'0 0.0
2017-Dec-29 20:58N 34°28' E 136°51'0 0.0
2017-Dec-29 20:30N 34°28' E 136°51'0 0.0
2017-Dec-29 20:00N 34°28' E 136°51'0 0.0
2017-Dec-29 19:30N 34°28' E 136°51'0 0.0
2017-Dec-29 18:57N 34°28' E 136°51'0 0.0
2017-Dec-29 18:30N 34°28' E 136°51'0 0.0
2017-Dec-29 17:57N 34°28' E 136°51'0 0.0
2017-Dec-29 17:31N 34°28' E 136°51'0 0.0
2017-Dec-29 16:59N 34°28' E 136°51'0 0.0
2017-Dec-29 16:29N 34°28' E 136°51'0 0.0
2017-Dec-29 16:00N 34°28' E 136°51'0 0.0
2017-Dec-29 15:31N 34°28' E 136°51'0 0.0
2017-Dec-29 15:00N 34°28' E 136°51'0 0.0
2017-Dec-29 14:30N 34°28' E 136°51'0 0.0
2017-Dec-29 14:00N 34°28' E 136°51'0 0.0
2017-Dec-29 13:30N 34°28' E 136°51'0 0.0
2017-Dec-29 13:01N 34°28' E 136°51'0 0.0
2017-Dec-29 12:29N 34°28' E 136°51'0 0.0
2017-Dec-29 12:00N 34°28' E 136°51'0 0.0
2017-Dec-29 11:31N 34°28' E 136°51'0 0.0
2017-Dec-29 11:00N 34°28' E 136°51'0 0.0
2017-Dec-29 10:30N 34°28' E 136°51'0 0.0
2017-Dec-29 09:58N 34°28' E 136°51'0 0.0
2017-Dec-29 09:29N 34°28' E 136°51'0 0.0
2017-Dec-29 09:00N 34°28' E 136°51'0 0.0
2017-Dec-29 07:49N 34°28' E 136°51'0 0.0
2017-Dec-29 07:20N 34°28' E 136°51'0 0.0
2017-Dec-29 06:59N 34°28' E 136°51'0 0.0
2017-Dec-29 06:28N 34°28' E 136°51'0 0.0
2017-Dec-29 05:56N 34°28' E 136°51'0 0.0
2017-Dec-29 05:30N 34°28' E 136°51'0 0.0
2017-Dec-29 04:34N 34°28' E 136°51'0 0.0
2017-Dec-29 04:30N 34°28' E 136°51'0 0.0
2017-Dec-29 01:49N 34°28' E 136°51'1 2.0
2017-Dec-29 01:29N 34°29' E 136°51'1 1.1
2017-Dec-29 01:01N 34°30' E 136°51'0 0.0
2017-Dec-29 00:27N 34°30' E 136°51'0 0.0
2017-Dec-28 23:59N 34°30' E 136°51'0 0.0
2017-Dec-28 23:30N 34°30' E 136°51'0 0.0
2017-Dec-28 23:01N 34°30' E 136°51'0 0.0
2017-Dec-28 22:23N 34°30' E 136°51'1 2.5
2017-Dec-28 22:00N 34°29' E 136°51'0 0.1
2017-Dec-28 20:04N 34°28' E 136°51'0 0.0
2017-Dec-28 17:19N 34°28' E 136°51'0 0.0
2017-Dec-28 16:55N 34°28' E 136°51'0 0.0
2017-Dec-28 16:28N 34°28' E 136°51'0 0.0
2017-Dec-28 15:15N 34°28' E 136°51'0 0.0
2017-Dec-28 14:37N 34°28' E 136°51'0 0.0
2017-Dec-28 14:24N 34°28' E 136°51'0 0.0
2017-Dec-28 13:50N 34°28' E 136°51'0 0.0
2017-Dec-28 13:30N 34°28' E 136°51'0 0.0
2017-Dec-28 12:58N 34°28' E 136°51'0 0.0
2017-Dec-28 12:28N 34°28' E 136°51'0 0.0
2017-Dec-28 11:56N 34°28' E 136°51'0 0.0
2017-Dec-28 11:28N 34°28' E 136°51'0 0.0
2017-Dec-28 11:00N 34°28' E 136°51'0 0.0
2017-Dec-28 10:22N 34°28' E 136°51'0 0.0
2017-Dec-28 10:00N 34°28' E 136°51'0 0.0
2017-Dec-28 09:29N 34°28' E 136°51'0 0.0
2017-Dec-28 09:00N 34°28' E 136°51'0 0.0
2017-Dec-28 08:29N 34°28' E 136°51'0 0.0
2017-Dec-28 07:14N 34°28' E 136°51'0 0.0
2017-Dec-28 06:51N 34°28' E 136°51'0 0.0
2017-Dec-28 06:22N 34°28' E 136°51'0 0.1
2017-Dec-28 05:53N 34°29' E 136°51'8 8.6
2017-Dec-28 04:59N 34°29' E 137°00'9 9.6
2017-Dec-28 04:03N 34°31' E 137°11'110.1
2017-Dec-28 04:00N 34°31' E 137°12'510.2
2017-Dec-28 03:30N 34°31' E 137°18'26 8.8
2017-Dec-28 00:36N 34°34' E 137°49'4 8.4
2017-Dec-28 00:08N 34°34' E 137°54'2 8.8
2017-Dec-27 23:53N 34°34' E 137°56'11 8.6
2017-Dec-27 22:39N 34°34' E 138°09'2 8.1
2017-Dec-27 22:27N 34°34' E 138°11'4 8.7
2017-Dec-27 21:59N 34°34' E 138°16'5 9.6
2017-Dec-27 21:30N 34°37' E 138°21'5 9.1
2017-Dec-27 20:57N 34°39' E 138°26'4 8.6
2017-Dec-27 20:29N 34°41' E 138°30'4 8.4
2017-Dec-27 20:00N 34°40' E 138°35'4 7.4
2017-Dec-27 19:27N 34°38' E 138°39'3 6.6
2017-Dec-27 18:59N 34°37' E 138°43'3 6.3
2017-Dec-27 18:30N 34°36' E 138°46'3 5.8
2017-Dec-27 18:01N 34°35' E 138°50'3 5.2
2017-Dec-27 17:30N 34°35' E 138°53'3 5.9
2017-Dec-27 17:00N 34°36' E 138°56'6 8.9
2017-Dec-27 16:23N 34°40' E 139°01'410.1
2017-Dec-27 16:01N 34°43' E 139°04'510.1
2017-Dec-27 15:31N 34°47' E 139°08'5 9.8
2017-Dec-27 15:00N 34°50' E 139°13'5 9.5
2017-Dec-27 14:31N 34°51' E 139°18'5 9.2
2017-Dec-27 14:00N 34°53' E 139°24'5 9.3
2017-Dec-27 13:30N 34°53' E 139°29'510.2
2017-Dec-27 13:00N 34°53' E 139°36'710.6
2017-Dec-27 12:17N 34°53' E 139°45'310.4
2017-Dec-27 11:59N 34°53' E 139°49'  

Dump ship's entire track history